createdAt,value
2018-10-02T00:01:56.846Z,100674.58
2018-10-02T00:04:28.422Z,100672.05
2018-10-02T00:06:59.714Z,100665.62
2018-10-02T00:09:31.200Z,100669.70
2018-10-02T00:12:07.643Z,100667.13
2018-10-02T00:14:38.985Z,100669.03
2018-10-02T00:17:10.497Z,100663.42
2018-10-02T00:19:42.197Z,100674.61
2018-10-02T00:22:13.705Z,100669.21
2018-10-02T00:24:45.324Z,100665.80
2018-10-02T00:27:16.833Z,100664.98
2018-10-02T00:29:48.321Z,100668.03
2018-10-02T00:32:19.912Z,100664.31
2018-10-02T00:34:51.259Z,100661.42
2018-10-02T00:37:22.710Z,100662.60
2018-10-02T00:39:54.187Z,100665.29
2018-10-02T00:42:25.690Z,100667.70
2018-10-02T00:44:57.181Z,100671.77
2018-10-02T00:47:28.676Z,100672.28
2018-10-02T00:50:00.190Z,100670.26
2018-10-02T00:52:31.706Z,100672.97
2018-10-02T00:55:03.202Z,100674.18
2018-10-02T00:57:34.686Z,100666.72
2018-10-02T01:00:06.056Z,100669.44
2018-10-02T01:02:37.754Z,100672.31
2018-10-02T01:05:09.499Z,100670.92
2018-10-02T01:07:40.830Z,100666.17
2018-10-02T01:10:12.349Z,100667.90
2018-10-02T01:12:43.865Z,100667.55
2018-10-02T01:15:15.344Z,100669.91
2018-10-02T01:17:46.701Z,100666.52
2018-10-02T01:20:18.192Z,100669.77
2018-10-02T01:22:49.697Z,100666.17
2018-10-02T01:25:21.313Z,100667.39
2018-10-02T01:27:52.796Z,100668.21
2018-10-02T01:30:24.371Z,100667.52
2018-10-02T01:32:56.341Z,100669.55
2018-10-02T01:35:27.699Z,100673.10
2018-10-02T01:37:59.067Z,100671.61
2018-10-02T01:40:30.647Z,100670.23
2018-10-02T01:43:01.978Z,100677.20
2018-10-02T01:45:32.503Z,100670.72
2018-10-02T01:48:03.869Z,100673.77
2018-10-02T01:50:35.319Z,100669.06
2018-10-02T01:53:06.796Z,100671.41
2018-10-02T01:55:38.314Z,100667.34
2018-10-02T01:58:09.710Z,100670.23
2018-10-02T02:00:41.197Z,100673.28
2018-10-02T02:03:12.697Z,100670.56
2018-10-02T02:05:44.059Z,100671.95
2018-10-02T02:08:15.628Z,100681.25
2018-10-02T02:10:47.211Z,100684.80
2018-10-02T02:13:18.739Z,100686.83
2018-10-02T02:15:50.368Z,100690.91
2018-10-02T02:18:21.740Z,100684.09
2018-10-02T02:20:53.217Z,100678.33
2018-10-02T02:23:24.723Z,100694.64
2018-10-02T02:25:55.789Z,100698.84
2018-10-02T02:28:26.790Z,100696.30
2018-10-02T02:30:58.271Z,100704.14
2018-10-02T02:33:29.665Z,100701.95
2018-10-02T02:36:00.842Z,100704.51
2018-10-02T02:38:32.372Z,100703.78
2018-10-02T02:41:03.863Z,100699.89
2018-10-02T02:43:35.349Z,100701.91
2018-10-02T02:46:06.837Z,100701.73
2018-10-02T02:48:43.319Z,100697.84
2018-10-02T02:51:20.778Z,100699.71
2018-10-02T02:53:52.332Z,100696.63
2018-10-02T02:56:24.012Z,100695.45
2018-10-02T02:58:55.692Z,100691.72
2018-10-02T03:01:26.945Z,100688.49
2018-10-02T03:03:57.515Z,100692.23
2018-10-02T03:06:28.904Z,100692.27
2018-10-02T03:09:00.782Z,100691.75
2018-10-02T03:11:32.265Z,100683.75
2018-10-02T03:14:03.694Z,100679.69
2018-10-02T03:16:34.893Z,100675.28
2018-10-02T03:19:06.328Z,100673.92
2018-10-02T03:21:37.730Z,100675.61
2018-10-02T03:24:09.192Z,100678.14
2018-10-02T03:26:40.711Z,100689.37
2018-10-02T03:29:12.514Z,100690.57
2018-10-02T03:31:43.844Z,100689.58
2018-10-02T03:34:15.493Z,100681.91
2018-10-02T03:36:46.894Z,100677.36
2018-10-02T03:39:18.414Z,100687.88
2018-10-02T03:41:50.184Z,100684.48
2018-10-02T03:44:21.670Z,100682.42
2018-10-02T03:46:53.191Z,100678.71
2018-10-02T03:49:24.674Z,100675.30
2018-10-02T03:51:56.197Z,100676.48
2018-10-02T03:54:28.353Z,100680.41
2018-10-02T03:57:00.298Z,100674.64
2018-10-02T03:59:31.753Z,100675.67
2018-10-02T04:02:03.302Z,100680.41
2018-10-02T04:04:34.712Z,100680.56
2018-10-02T04:07:06.192Z,100680.77
2018-10-02T04:09:37.716Z,100682.13
2018-10-02T04:12:09.403Z,100688.22
2018-10-02T04:14:40.706Z,100681.13
2018-10-02T04:17:12.190Z,100686.52
2018-10-02T04:19:43.689Z,100688.03
2018-10-02T04:22:15.197Z,100683.45
2018-10-02T04:24:46.752Z,100692.62
2018-10-02T04:27:18.426Z,100689.76
2018-10-02T04:29:49.736Z,100687.19
2018-10-02T04:32:21.303Z,100694.31
2018-10-02T04:34:52.783Z,100705.02
2018-10-02T04:37:24.201Z,100697.72
2018-10-02T04:39:55.671Z,100688.88
2018-10-02T04:42:27.214Z,100698.20
2018-10-02T04:44:58.707Z,100701.45
2018-10-02T04:47:30.302Z,100704.20
2018-10-02T04:50:01.674Z,100704.87
2018-10-02T04:52:32.971Z,100700.12
2018-10-02T04:55:04.565Z,100710.66
2018-10-02T04:57:35.975Z,100699.77
2018-10-02T05:00:07.795Z,100701.81
2018-10-02T05:02:38.971Z,100709.97
2018-10-02T05:05:10.574Z,100707.22
2018-10-02T05:07:42.204Z,100710.30
2018-10-02T05:10:13.690Z,100712.66
2018-10-02T05:12:45.064Z,100716.36
2018-10-02T05:15:16.647Z,100722.67
2018-10-02T05:17:47.827Z,100723.00
2018-10-02T05:20:19.523Z,100720.47
2018-10-02T05:22:50.988Z,100717.75
2018-10-02T05:25:22.489Z,100709.94
2018-10-02T05:27:53.977Z,100711.95
2018-10-02T05:30:25.518Z,100717.57
2018-10-02T05:32:56.831Z,100719.63
2018-10-02T05:35:28.347Z,100711.98
2018-10-02T05:37:59.711Z,100718.93
2018-10-02T05:40:31.338Z,100719.92
2018-10-02T05:43:02.732Z,100722.27
2018-10-02T05:45:34.566Z,100726.31
2018-10-02T05:48:06.194Z,100733.97
2018-10-02T05:50:37.775Z,100740.10
2018-10-02T05:53:09.202Z,100730.93
2018-10-02T05:55:40.691Z,100738.23
2018-10-02T05:58:12.238Z,100730.59
2018-10-02T06:00:43.759Z,100728.21
2018-10-02T06:03:15.419Z,100734.30
2018-10-02T06:05:46.723Z,100727.88
2018-10-02T06:08:17.738Z,100727.22
2018-10-02T06:10:48.752Z,100735.36
2018-10-02T06:13:20.358Z,100733.31
2018-10-02T06:15:51.820Z,100721.79
2018-10-02T06:18:23.300Z,100718.93
2018-10-02T06:20:54.710Z,100728.58
2018-10-02T06:23:25.989Z,100730.45
2018-10-02T06:25:58.057Z,100732.14
2018-10-02T06:28:29.794Z,100735.22
2018-10-02T06:31:01.351Z,100732.35
2018-10-02T06:33:32.800Z,100735.22
2018-10-02T06:36:06.870Z,100732.38
2018-10-02T06:38:38.552Z,100735.43
2018-10-02T06:41:09.967Z,100730.69
2018-10-02T06:43:41.557Z,100747.14
2018-10-02T06:46:13.180Z,100745.63
2018-10-02T06:48:44.650Z,100742.91
2018-10-02T06:51:16.293Z,100742.61
2018-10-02T06:53:47.714Z,100747.53
2018-10-02T06:56:19.301Z,100754.13
2018-10-02T06:58:50.876Z,100756.39
2018-10-02T07:01:22.406Z,100747.91
2018-10-02T07:03:53.796Z,100746.94
2018-10-02T07:06:25.395Z,100752.67
2018-10-02T07:08:56.752Z,100738.56
2018-10-02T07:11:28.314Z,100741.58
2018-10-02T07:13:59.753Z,100734.48
2018-10-02T07:16:31.364Z,100737.28
2018-10-02T07:19:02.728Z,100741.87
2018-10-02T07:21:34.391Z,100746.91
2018-10-02T07:24:05.742Z,100744.52
2018-10-02T07:26:37.282Z,100744.73
2018-10-02T07:29:08.744Z,100749.84
2018-10-02T07:31:40.694Z,100739.09
2018-10-02T07:34:12.458Z,100737.02
2018-10-02T07:36:43.959Z,100736.02
2018-10-02T07:39:15.410Z,100726.70
2018-10-02T07:41:47.020Z,100733.14
2018-10-02T07:44:18.720Z,100728.99
2018-10-02T07:46:50.325Z,100729.00
2018-10-02T07:49:21.766Z,100732.55
2018-10-02T07:51:53.431Z,100735.11
2018-10-02T07:54:24.802Z,100735.30
2018-10-02T07:56:56.368Z,100732.07
2018-10-02T07:59:27.727Z,100724.08
2018-10-02T08:01:59.408Z,100719.82
2018-10-02T08:04:30.843Z,100718.66
2018-10-02T08:07:02.432Z,100714.39
2018-10-02T08:09:33.900Z,100726.98
2018-10-02T08:12:05.431Z,100731.23
2018-10-02T08:14:36.769Z,100717.97
2018-10-02T08:17:08.219Z,100721.36
2018-10-02T08:19:40.218Z,100720.34
2018-10-02T08:22:11.716Z,100718.66
2018-10-02T08:24:43.302Z,100710.83
2018-10-02T08:27:14.972Z,100711.02
2018-10-02T08:29:46.360Z,100716.11
2018-10-02T08:32:17.862Z,100707.09
2018-10-02T08:34:49.375Z,100708.63
2018-10-02T08:37:21.006Z,100693.52
2018-10-02T08:39:52.655Z,100688.08
2018-10-02T08:42:24.202Z,100690.12
2018-10-02T08:44:55.397Z,100689.94
2018-10-02T08:47:26.635Z,100687.75
2018-10-02T08:49:57.590Z,100684.17
2018-10-02T08:52:28.626Z,100687.38
2018-10-02T08:54:59.545Z,100675.47
2018-10-02T08:57:30.655Z,100675.50
2018-10-02T09:00:01.623Z,100670.90
2018-10-02T09:02:32.690Z,100671.94
2018-10-02T09:05:03.662Z,100673.63
2018-10-02T09:07:34.605Z,100667.17
2018-10-02T09:10:05.576Z,100658.14
2018-10-02T09:12:36.638Z,100657.84
2018-10-02T09:15:12.157Z,100649.48
2018-10-02T09:17:38.812Z,100645.59
2018-10-02T09:20:09.804Z,100648.98
2018-10-02T09:22:40.848Z,100638.77
2018-10-02T09:25:11.806Z,100638.73
2018-10-02T09:27:42.882Z,100629.40
2018-10-02T09:30:19.085Z,100641.98
2018-10-02T09:32:55.207Z,100638.25
2018-10-02T09:35:31.414Z,100638.44
2018-10-02T09:38:07.725Z,100626.52
2018-10-02T09:40:51.818Z,100637.08
2018-10-02T09:43:27.521Z,100633.65
2018-10-02T09:48:40.396Z,100637.02
2018-10-02T09:51:11.498Z,100635.34
2018-10-02T09:53:42.636Z,100637.03
2018-10-02T09:56:14.194Z,100633.30
2018-10-02T09:58:45.730Z,100625.30
2018-10-02T10:01:22.287Z,100637.03
2018-10-02T10:03:53.773Z,100627.67
2018-10-02T10:06:24.799Z,100622.91
2018-10-02T10:08:56.302Z,100625.98
2018-10-02T10:11:27.768Z,100616.46
2018-10-02T10:13:59.195Z,100624.27
2018-10-02T10:16:30.755Z,100630.58
2018-10-02T10:19:02.196Z,100627.70
2018-10-02T10:21:33.679Z,100624.30
2018-10-02T10:24:05.271Z,100618.34
2018-10-02T10:26:36.710Z,100626.69
2018-10-02T10:29:08.744Z,100620.90
2018-10-02T10:31:40.194Z,100631.96
2018-10-02T10:34:11.623Z,100624.84
2018-10-02T10:36:42.897Z,100620.23
2018-10-02T10:39:14.577Z,100608.83
2018-10-02T10:41:45.991Z,100615.49
2018-10-02T10:44:17.716Z,100610.21
2018-10-02T10:46:49.020Z,100604.09
2018-10-02T10:49:20.577Z,100607.52
2018-10-02T10:51:51.969Z,100598.49
2018-10-02T10:54:22.532Z,100590.85
2018-10-02T10:56:54.220Z,100599.01
2018-10-02T10:59:25.787Z,100591.17
2018-10-02T11:01:57.335Z,100585.59
2018-10-02T11:04:28.808Z,100583.70
2018-10-02T11:07:00.243Z,100585.08
2018-10-02T11:09:31.743Z,100584.40
2018-10-02T11:12:03.337Z,100582.87
2018-10-02T11:14:34.783Z,100584.40
2018-10-02T11:17:06.371Z,100579.80
2018-10-02T11:19:37.779Z,100572.16
2018-10-02T11:22:09.200Z,100570.66
2018-10-02T11:24:40.728Z,100572.67
2018-10-02T11:27:12.334Z,100580.00
2018-10-02T11:29:43.766Z,100573.87
2018-10-02T11:32:15.363Z,100572.87
2018-10-02T11:34:46.990Z,100570.33
2018-10-02T11:37:18.576Z,100569.47
2018-10-02T11:39:49.895Z,100563.02
2018-10-02T11:42:21.352Z,100561.30
2018-10-02T11:44:53.000Z,100550.62
2018-10-02T11:47:24.394Z,100541.78
2018-10-02T11:49:55.951Z,100539.56
2018-10-02T11:52:26.556Z,100532.92
2018-10-02T11:54:57.905Z,100525.64
2018-10-02T11:57:29.412Z,100519.19
2018-10-02T12:00:00.795Z,100518.84
2018-10-02T12:02:32.376Z,100516.80
2018-10-02T12:05:03.759Z,100520.03
2018-10-02T12:07:35.303Z,100511.69
2018-10-02T12:10:06.984Z,100505.57
2018-10-02T12:12:39.727Z,100498.80
2018-10-02T12:15:11.501Z,100497.41
2018-10-02T12:17:43.547Z,100482.66
2018-10-02T12:20:15.486Z,100483.33
2018-10-02T12:22:46.966Z,100479.09
2018-10-02T12:25:17.609Z,100471.62
2018-10-02T12:27:48.990Z,100479.09
2018-10-02T12:30:20.516Z,100473.98
2018-10-02T12:32:51.868Z,100466.34
2018-10-02T12:35:23.361Z,100463.66
2018-10-02T12:37:54.778Z,100456.51
2018-10-02T12:40:25.787Z,100457.02
2018-10-02T12:42:56.791Z,100448.52
2018-10-02T12:45:27.746Z,100441.72
2018-10-02T12:47:59.318Z,100444.11
2018-10-02T12:50:30.762Z,100435.95
2018-10-02T12:53:02.675Z,100419.65
2018-10-02T12:55:33.928Z,100424.73
2018-10-02T12:58:05.547Z,100424.73
2018-10-02T13:00:37.008Z,100412.17
2018-10-02T13:03:08.555Z,100409.78
2018-10-02T13:05:40.341Z,100404.50
2018-10-02T13:08:11.837Z,100400.62
2018-10-02T13:10:43.296Z,100391.94
2018-10-02T13:13:14.783Z,100388.35
2018-10-02T13:15:46.196Z,100386.66
2018-10-02T13:18:17.695Z,100386.35
2018-10-02T13:20:49.397Z,100384.67
2018-10-02T13:23:20.870Z,100386.19
2018-10-02T13:25:52.404Z,100388.23
2018-10-02T13:28:23.843Z,100380.59
2018-10-02T13:30:55.237Z,100378.55
2018-10-02T13:33:26.325Z,100356.45
2018-10-02T13:35:57.787Z,100366.65
2018-10-02T13:38:29.283Z,100356.13
2018-10-02T13:41:00.715Z,100350.69
2018-10-02T13:43:31.988Z,100341.19
2018-10-02T13:46:02.576Z,100346.62
2018-10-02T13:48:34.225Z,100332.35
2018-10-02T13:51:05.728Z,100333.52
2018-10-02T13:53:37.381Z,100325.88
2018-10-02T13:56:09.205Z,100325.19
2018-10-02T13:58:40.670Z,100316.57
2018-10-02T14:01:11.897Z,100320.84
2018-10-02T14:03:43.377Z,100319.91
2018-10-02T14:06:14.762Z,100325.95
2018-10-02T14:08:46.213Z,100311.13
2018-10-02T14:11:17.694Z,100326.22
2018-10-02T14:13:48.986Z,100318.92
2018-10-02T14:16:20.536Z,100316.75
2018-10-02T14:18:51.916Z,100304.75
2018-10-02T14:21:22.567Z,100296.52
2018-10-02T14:23:53.848Z,100295.78
2018-10-02T14:26:25.203Z,100290.72
2018-10-02T14:28:56.736Z,100295.32
2018-10-02T14:31:28.307Z,100286.11
2018-10-02T14:33:59.740Z,100283.63
2018-10-02T14:36:31.320Z,100273.17
2018-10-02T14:39:02.700Z,100284.70
2018-10-02T14:41:34.204Z,100290.91
2018-10-02T14:44:06.613Z,100277.84
2018-10-02T14:46:37.662Z,100272.63
2018-10-02T14:49:08.808Z,100272.63
2018-10-02T14:51:40.302Z,100263.13
2018-10-02T14:54:11.785Z,100267.08
2018-10-02T14:56:43.261Z,100264.79
2018-10-02T14:59:14.677Z,100262.64
2018-10-02T15:01:46.191Z,100252.52
2018-10-02T15:04:17.670Z,100249.50
2018-10-02T15:06:48.988Z,100256.16
2018-10-02T15:09:20.834Z,100244.60
2018-10-02T15:11:52.377Z,100241.09
2018-10-02T15:14:23.749Z,100247.52
2018-10-02T15:16:55.731Z,100239.36
2018-10-02T15:19:27.335Z,100234.09
2018-10-02T15:21:58.767Z,100234.55
2018-10-02T15:24:30.317Z,100226.36
2018-10-02T15:27:01.816Z,100221.33
2018-10-02T15:29:33.538Z,100203.58
2018-10-02T15:32:04.967Z,100218.69
2018-10-02T15:34:35.546Z,100214.66
2018-10-02T15:39:49.766Z,100209.39
2018-10-02T15:42:21.213Z,100208.23
2018-10-02T15:44:52.699Z,100206.58
2018-10-02T15:47:24.191Z,100217.31
2018-10-02T15:49:55.874Z,100214.44
2018-10-02T15:52:27.388Z,100215.10
2018-10-02T15:54:58.773Z,100200.45
2018-10-02T15:57:30.371Z,100206.03
2018-10-02T16:00:04.614Z,100210.04
2018-10-02T16:02:35.973Z,100210.88
2018-10-02T16:05:07.637Z,100212.48
2018-10-02T16:07:39.213Z,100207.66
2018-10-02T16:10:10.739Z,100219.91
2018-10-02T16:12:42.350Z,100209.25
2018-10-02T16:15:13.723Z,100219.60
2018-10-02T16:17:45.231Z,100212.31
2018-10-02T16:20:16.692Z,100224.41
2018-10-02T16:22:48.191Z,100221.70
2018-10-02T16:25:19.736Z,100227.83
2018-10-02T16:27:51.421Z,100226.82
2018-10-02T16:31:34.346Z,100229.55
2018-10-02T16:34:05.576Z,100223.44
2018-10-02T16:36:36.894Z,100237.05
2018-10-02T16:39:10.810Z,100236.66
2018-10-02T16:41:42.376Z,100248.89
2018-10-02T16:44:13.752Z,100239.74
2018-10-02T16:46:45.007Z,100239.00
2018-10-02T16:49:16.696Z,100236.66
2018-10-02T16:52:24.359Z,100238.69
2018-10-02T16:54:55.656Z,100243.45
2018-10-02T16:57:26.638Z,100239.91
2018-10-02T16:59:57.653Z,100240.95
2018-10-02T17:02:28.853Z,100234.98
2018-10-02T17:05:00.494Z,100246.17
2018-10-02T17:07:32.307Z,100246.23
2018-10-02T17:10:04.889Z,100239.08
2018-10-02T17:12:36.368Z,100238.55
2018-10-02T17:15:07.990Z,100234.83
2018-10-02T17:17:39.646Z,100237.88
2018-10-02T17:20:11.191Z,100244.66
2018-10-02T17:22:42.732Z,100250.53
2018-10-02T17:25:14.310Z,100247.11
2018-10-02T17:27:45.707Z,100247.23
2018-10-02T17:30:17.195Z,100245.43
2018-10-02T17:32:49.208Z,100249.80
2018-10-02T17:35:20.630Z,100247.17
2018-10-02T17:37:51.978Z,100245.50
2018-10-02T17:40:22.894Z,100260.63
2018-10-02T17:42:54.006Z,100249.80
2018-10-02T17:45:25.498Z,100262.49
2018-10-02T17:47:56.873Z,100250.80
2018-10-02T17:50:28.369Z,100262.44
2018-10-02T17:52:59.728Z,100271.09
2018-10-02T17:55:31.311Z,100257.66
2018-10-02T17:58:02.721Z,100272.95
2018-10-02T18:00:34.338Z,100269.73
2018-10-02T18:03:05.879Z,100268.02
2018-10-02T18:05:38.623Z,100263.77
2018-10-02T18:08:10.177Z,100264.76
2018-10-02T18:10:41.678Z,100259.00
2018-10-02T18:13:12.987Z,100268.00
2018-10-02T18:15:44.593Z,100270.95
2018-10-02T18:18:15.906Z,100267.48
2018-10-02T18:20:47.737Z,100266.29
2018-10-02T18:23:19.381Z,100267.87
2018-10-02T18:25:50.792Z,100271.81
2018-10-02T18:28:21.903Z,100276.47
2018-10-02T18:30:53.348Z,100279.53
2018-10-02T18:33:24.772Z,100286.48
2018-10-02T18:35:55.811Z,100277.69
2018-10-02T18:38:27.014Z,100279.14
2018-10-02T18:40:58.728Z,100274.89
2018-10-02T18:43:30.294Z,100270.98
2018-10-02T18:46:01.739Z,100264.23
2018-10-02T18:48:33.350Z,100262.87
2018-10-02T18:51:04.709Z,100266.58
2018-10-02T18:53:36.279Z,100264.84
2018-10-02T18:56:08.737Z,100256.67
2018-10-02T18:58:40.611Z,100259.10
2018-10-02T19:02:49.359Z,100253.98
2018-10-02T19:05:20.844Z,100263.48
2018-10-02T19:07:52.338Z,100259.80
2018-10-02T19:10:23.788Z,100264.64
2018-10-02T19:12:55.360Z,100266.89
2018-10-02T19:15:27.291Z,100262.66
2018-10-02T19:17:58.757Z,100269.61
2018-10-02T19:20:35.757Z,100261.77
2018-10-02T19:23:06.910Z,100276.39
2018-10-02T19:25:42.359Z,100271.81
2018-10-02T19:28:13.832Z,100274.89
2018-10-02T19:30:50.619Z,100260.06
2018-10-02T19:33:22.494Z,100254.18
2018-10-02T19:35:54.295Z,100258.78
2018-10-02T19:41:12.848Z,100266.22
2018-10-02T19:43:43.901Z,100263.48
2018-10-02T19:46:20.486Z,100261.42
2018-10-02T19:48:51.892Z,100263.19
2018-10-02T19:51:28.403Z,100260.98
2018-10-02T19:53:59.877Z,100265.16
2018-10-02T19:56:31.539Z,100260.41
2018-10-02T19:59:03.059Z,100259.05
2018-10-02T20:01:34.658Z,100261.83
2018-10-02T20:04:06.241Z,100262.66
2018-10-02T20:06:37.714Z,100259.42
2018-10-02T20:09:10.898Z,100263.27
2018-10-02T20:11:42.550Z,100267.87
2018-10-02T20:14:14.405Z,100275.58
2018-10-02T20:16:45.846Z,100269.09
2018-10-02T20:19:19.435Z,100273.03
2018-10-02T20:21:51.849Z,100260.78
2018-10-02T20:24:24.750Z,100263.33
2018-10-02T20:26:56.638Z,100275.18
2018-10-02T20:29:28.191Z,100280.65
2018-10-02T20:31:59.789Z,100287.00
2018-10-02T20:34:32.552Z,100291.45
2018-10-02T20:37:04.183Z,100285.13
2018-10-02T20:39:35.640Z,100282.75
2018-10-02T20:42:07.194Z,100289.86
2018-10-02T20:44:38.680Z,100280.20
2018-10-02T20:47:10.194Z,100292.28
2018-10-02T20:49:41.713Z,100289.20
2018-10-02T20:52:13.199Z,100289.41
2018-10-02T20:54:44.714Z,100285.34
2018-10-02T20:57:16.201Z,100287.40
2018-10-02T20:59:49.513Z,100288.29
2018-10-02T21:02:21.212Z,100286.23
2018-10-02T21:04:52.756Z,100289.50
2018-10-02T21:07:24.351Z,100283.02
2018-10-02T21:09:55.872Z,100289.62
2018-10-02T21:12:27.424Z,100285.50
2018-10-02T21:14:59.192Z,100287.55
2018-10-02T21:17:30.686Z,100278.90
2018-10-02T21:20:02.287Z,100276.49
2018-10-02T21:22:34.652Z,100282.61
2018-10-02T21:25:06.029Z,100277.16
2018-10-02T21:30:05.569Z,100270.75
2018-10-02T21:32:36.744Z,100267.66
2018-10-02T21:35:08.300Z,100260.77
2018-10-02T21:37:39.831Z,100265.84
2018-10-02T21:40:11.837Z,100270.98
2018-10-02T21:42:43.590Z,100267.52
2018-10-02T21:45:15.204Z,100269.41
2018-10-02T21:47:46.752Z,100267.89
2018-10-02T21:50:18.377Z,100256.02
2018-10-02T21:52:49.884Z,100256.46
2018-10-02T21:55:21.407Z,100254.06
2018-10-02T21:57:52.823Z,100255.77
2018-10-02T22:00:24.411Z,100260.71
2018-10-02T22:02:55.758Z,100260.17
2018-10-02T22:05:27.651Z,100236.75
2018-10-02T22:07:59.183Z,100252.55
2018-10-02T22:10:30.802Z,100249.02
2018-10-02T22:13:02.394Z,100252.23
2018-10-02T22:15:33.837Z,100246.44
2018-10-02T22:18:05.396Z,100250.33
2018-10-02T22:20:36.770Z,100256.70
2018-10-02T22:23:08.512Z,100254.47
2018-10-02T22:25:40.221Z,100253.95
2018-10-02T22:28:11.656Z,100255.39
2018-10-02T22:30:42.980Z,100254.50
2018-10-02T22:33:14.296Z,100260.78
2018-10-02T22:35:45.751Z,100256.23
2018-10-02T22:38:17.317Z,100257.22
2018-10-02T22:40:48.707Z,100253.34
2018-10-02T22:43:20.365Z,100248.89
2018-10-02T22:45:51.770Z,100255.02
2018-10-02T22:48:23.258Z,100254.50
2018-10-02T22:50:54.707Z,100253.89
2018-10-02T22:53:26.303Z,100254.06
2018-10-02T22:55:57.747Z,100251.48
2018-10-02T22:58:29.272Z,100245.67
2018-10-02T23:01:00.712Z,100258.29
2018-10-02T23:03:32.205Z,100252.67
2018-10-02T23:06:03.719Z,100253.53
2018-10-02T23:08:35.368Z,100253.96
2018-10-02T23:11:06.812Z,100260.55
2018-10-02T23:13:38.309Z,100271.03
2018-10-02T23:16:09.879Z,100261.83
2018-10-02T23:18:41.661Z,100254.70
2018-10-02T23:21:13.181Z,100258.81
2018-10-02T23:23:44.672Z,100264.94
2018-10-02T23:26:16.211Z,100266.83
2018-10-02T23:28:47.696Z,100265.29
2018-10-02T23:31:19.286Z,100274.98
2018-10-02T23:33:50.730Z,100275.53
2018-10-02T23:36:22.193Z,100269.09
2018-10-02T23:40:44.329Z,100277.92
2018-10-02T23:43:15.550Z,100278.59
2018-10-02T23:45:46.684Z,100275.16
2018-10-02T23:48:18.396Z,100270.78
2018-10-02T23:50:49.952Z,100282.62
2018-10-02T23:53:20.570Z,100284.34
2018-10-02T23:55:52.251Z,100283.98
2018-10-02T23:58:23.695Z,100290.42
